createdAt,value
2023-02-02T00:01:25.315Z,19.64
2023-02-02T00:03:53.350Z,19.64
2023-02-02T00:06:22.636Z,19.64
2023-02-02T00:08:50.088Z,19.62
2023-02-02T00:11:19.292Z,19.62
2023-02-02T00:13:46.844Z,19.62
2023-02-02T00:16:26.340Z,19.61
2023-02-02T00:18:54.678Z,19.61
2023-02-02T00:21:22.837Z,19.60
2023-02-02T00:23:50.414Z,19.60
2023-02-02T00:26:19.123Z,19.59
2023-02-02T00:28:46.527Z,19.59
2023-02-02T00:31:13.869Z,19.59
2023-02-02T00:33:49.642Z,19.57
2023-02-02T00:36:18.564Z,19.57
2023-02-02T00:38:47.156Z,19.57
2023-02-02T00:41:14.739Z,19.57
2023-02-02T00:43:42.272Z,19.56
2023-02-02T00:46:18.704Z,19.55
2023-02-02T00:48:46.551Z,19.55
2023-02-02T00:51:13.843Z,19.55
2023-02-02T00:53:41.108Z,19.54
2023-02-02T00:56:08.404Z,19.53
2023-02-02T00:58:35.760Z,19.53
2023-02-02T01:01:03.498Z,19.52
2023-02-02T01:03:30.827Z,19.54
2023-02-02T01:05:58.121Z,19.53
2023-02-02T01:08:25.959Z,19.52
2023-02-02T01:10:53.282Z,19.53
2023-02-02T01:13:23.115Z,19.53
2023-02-02T01:15:55.815Z,19.52
2023-02-02T01:18:23.109Z,19.51
2023-02-02T01:21:12.388Z,19.51
2023-02-02T01:23:40.140Z,19.50
2023-02-02T01:26:11.292Z,19.50
2023-02-02T01:28:39.364Z,19.51
2023-02-02T01:31:13.270Z,19.50
2023-02-02T01:33:40.850Z,19.50
2023-02-02T01:36:12.293Z,19.49
2023-02-02T01:38:40.239Z,19.49
2023-02-02T01:41:08.160Z,19.49
2023-02-02T01:43:44.283Z,19.48
2023-02-02T01:46:20.041Z,19.48
2023-02-02T01:48:57.577Z,19.47
2023-02-02T01:51:31.612Z,19.46
2023-02-02T01:54:00.727Z,19.45
2023-02-02T01:56:40.623Z,19.46
2023-02-02T01:59:08.244Z,19.46
2023-02-02T02:01:35.541Z,19.45
2023-02-02T02:04:03.174Z,19.44
2023-02-02T02:06:31.987Z,19.44
2023-02-02T02:09:04.818Z,19.43
2023-02-02T02:11:34.233Z,19.43
2023-02-02T02:14:24.222Z,19.43
2023-02-02T02:17:30.522Z,19.42
2023-02-02T02:20:45.141Z,19.41
2023-02-02T02:23:58.602Z,19.40
2023-02-02T02:27:14.355Z,19.41
2023-02-02T02:30:15.968Z,19.41
2023-02-02T02:32:43.390Z,19.40
2023-02-02T02:35:16.808Z,19.40
2023-02-02T02:37:57.561Z,19.39
2023-02-02T02:40:54.299Z,19.39
2023-02-02T02:43:38.437Z,19.37
2023-02-02T02:46:06.707Z,19.37
2023-02-02T02:48:34.142Z,19.37
2023-02-02T02:51:46.753Z,19.37
2023-02-02T02:54:55.344Z,19.36
2023-02-02T02:57:50.171Z,19.36
2023-02-02T03:00:48.207Z,19.37
2023-02-02T03:03:29.633Z,19.36
2023-02-02T03:06:28.137Z,19.35
2023-02-02T03:09:18.913Z,19.35
2023-02-02T03:11:47.159Z,19.34
2023-02-02T03:14:14.585Z,19.34
2023-02-02T03:16:41.902Z,19.33
2023-02-02T03:19:09.406Z,19.33
2023-02-02T03:21:36.657Z,19.33
2023-02-02T03:24:04.380Z,19.33
2023-02-02T03:26:31.792Z,19.33
2023-02-02T03:29:00.616Z,19.32
2023-02-02T03:31:29.558Z,19.32
2023-02-02T03:33:56.894Z,19.32
2023-02-02T03:36:24.259Z,19.30
2023-02-02T03:38:51.491Z,19.30
2023-02-02T03:41:18.788Z,19.29
2023-02-02T03:43:46.137Z,19.28
2023-02-02T03:46:13.477Z,19.29
2023-02-02T03:48:40.699Z,19.28
2023-02-02T03:51:13.776Z,19.28
2023-02-02T03:53:44.508Z,19.27
2023-02-02T03:56:11.689Z,19.26
2023-02-02T03:58:39.051Z,19.26
2023-02-02T04:01:07.961Z,19.25
2023-02-02T04:03:35.270Z,19.26
2023-02-02T04:06:02.631Z,19.25
2023-02-02T04:08:31.462Z,19.25
2023-02-02T04:10:59.636Z,19.25
2023-02-02T04:13:26.886Z,19.25
2023-02-02T04:15:59.234Z,19.24
2023-02-02T04:18:27.976Z,19.24
2023-02-02T04:21:00.331Z,19.23
2023-02-02T04:23:29.042Z,19.23
2023-02-02T04:25:57.337Z,19.22
2023-02-02T04:28:25.464Z,19.22
2023-02-02T04:30:54.508Z,19.22
2023-02-02T04:33:23.471Z,19.21
2023-02-02T04:35:51.421Z,19.21
2023-02-02T04:38:18.978Z,19.21
2023-02-02T04:40:48.493Z,19.20
2023-02-02T04:43:16.061Z,19.21
2023-02-02T04:45:43.558Z,19.20
2023-02-02T04:48:15.142Z,19.20
2023-02-02T04:50:42.378Z,19.19
2023-02-02T04:53:09.632Z,19.19
2023-02-02T04:55:38.504Z,19.17
2023-02-02T04:58:06.429Z,19.17
2023-02-02T05:00:33.826Z,19.17
2023-02-02T05:03:01.521Z,19.15
2023-02-02T05:05:28.915Z,19.16
2023-02-02T05:07:56.181Z,19.16
2023-02-02T05:10:23.754Z,19.16
2023-02-02T05:12:53.264Z,19.16
2023-02-02T05:15:24.556Z,19.16
2023-02-02T05:17:52.044Z,19.16
2023-02-02T05:20:19.324Z,19.15
2023-02-02T05:22:49.818Z,19.14
2023-02-02T05:25:17.533Z,19.14
2023-02-02T05:27:45.648Z,19.15
2023-02-02T05:30:14.280Z,19.14
2023-02-02T05:32:41.869Z,19.15
2023-02-02T05:35:10.011Z,19.15
2023-02-02T05:37:37.298Z,19.14
2023-02-02T05:40:05.104Z,19.14
2023-02-02T05:42:32.493Z,19.13
2023-02-02T05:44:59.811Z,19.14
2023-02-02T05:47:27.167Z,19.14
2023-02-02T05:49:54.470Z,19.13
2023-02-02T05:52:24.793Z,19.13
2023-02-02T05:54:52.093Z,19.13
2023-02-02T05:57:19.391Z,19.12
2023-02-02T05:59:47.247Z,19.11
2023-02-02T06:02:14.480Z,19.11
2023-02-02T06:04:41.742Z,19.11
2023-02-02T06:07:09.000Z,19.10
2023-02-02T06:09:36.347Z,19.10
2023-02-02T06:12:03.986Z,19.10
2023-02-02T06:14:31.380Z,19.08
2023-02-02T06:16:58.567Z,19.07
2023-02-02T06:19:25.896Z,19.07
2023-02-02T06:21:53.176Z,19.05
2023-02-02T06:24:20.466Z,19.07
2023-02-02T06:26:47.792Z,19.07
2023-02-02T06:29:15.097Z,19.06
2023-02-02T06:31:42.568Z,19.05
2023-02-02T06:34:14.665Z,19.05
2023-02-02T06:36:42.945Z,19.04
2023-02-02T06:39:10.399Z,19.03
2023-02-02T06:41:37.750Z,19.03
2023-02-02T06:44:05.025Z,19.03
2023-02-02T06:46:32.382Z,19.02
2023-02-02T06:48:59.761Z,19.03
2023-02-02T06:51:27.012Z,19.02
2023-02-02T06:53:54.333Z,19.01
2023-02-02T06:56:22.964Z,19.00
2023-02-02T06:58:50.194Z,19.01
2023-02-02T07:01:17.581Z,19.00
2023-02-02T07:03:48.377Z,19.00
2023-02-02T07:06:24.160Z,19.00
2023-02-02T07:09:02.355Z,19.01
2023-02-02T07:11:38.227Z,19.00
2023-02-02T07:14:11.102Z,18.99
2023-02-02T07:16:38.337Z,18.99
2023-02-02T07:19:05.633Z,18.99
2023-02-02T07:21:36.436Z,18.98
2023-02-02T07:24:05.754Z,18.98
2023-02-02T07:26:35.339Z,18.97
2023-02-02T07:29:04.468Z,18.98
2023-02-02T07:31:34.101Z,18.98
2023-02-02T07:34:02.896Z,18.97
2023-02-02T07:36:30.575Z,18.97
2023-02-02T07:38:58.022Z,18.95
2023-02-02T07:41:25.594Z,18.96
2023-02-02T07:43:52.939Z,18.95
2023-02-02T07:46:20.623Z,18.95
2023-02-02T07:48:48.290Z,18.95
2023-02-02T07:51:17.594Z,18.96
2023-02-02T07:53:51.281Z,18.95
2023-02-02T07:56:21.063Z,18.96
2023-02-02T07:58:48.408Z,18.95
2023-02-02T08:01:16.957Z,18.98
2023-02-02T08:03:45.309Z,18.99
2023-02-02T08:06:16.161Z,19.00
2023-02-02T08:08:43.420Z,19.03
2023-02-02T08:11:12.574Z,19.05
2023-02-02T08:13:40.536Z,19.04
2023-02-02T08:16:08.575Z,19.05
2023-02-02T08:18:37.031Z,19.05
2023-02-02T08:24:05.723Z,19.09
2023-02-02T08:26:33.595Z,19.13
2023-02-02T08:29:07.856Z,19.15
2023-02-02T08:31:42.813Z,19.17
2023-02-02T08:34:11.679Z,19.20
2023-02-02T08:36:38.983Z,19.21
2023-02-02T08:39:08.999Z,19.23
2023-02-02T08:41:37.361Z,19.24
2023-02-02T08:44:11.351Z,19.26
2023-02-02T08:46:38.987Z,19.27
2023-02-02T08:49:06.726Z,19.28
2023-02-02T08:51:34.076Z,19.31
2023-02-02T08:54:01.354Z,19.31
2023-02-02T08:56:28.636Z,19.31
2023-02-02T08:59:03.168Z,19.33
2023-02-02T09:01:32.903Z,19.31
2023-02-02T09:04:06.089Z,19.22
2023-02-02T09:06:40.847Z,19.17
2023-02-02T09:09:11.540Z,19.19
2023-02-02T09:11:39.294Z,19.22
2023-02-02T09:14:07.173Z,19.24
2023-02-02T09:16:35.498Z,19.26
2023-02-02T09:19:03.536Z,19.29
2023-02-02T09:21:30.806Z,19.30
2023-02-02T09:23:58.201Z,19.33
2023-02-02T09:26:28.019Z,19.33
2023-02-02T09:29:02.494Z,19.34
2023-02-02T09:31:33.247Z,19.36
2023-02-02T09:34:02.691Z,19.38
2023-02-02T09:36:30.643Z,19.39
2023-02-02T09:38:58.347Z,19.40
2023-02-02T09:41:31.678Z,19.41
2023-02-02T09:44:16.768Z,19.42
2023-02-02T09:46:59.278Z,19.43
2023-02-02T09:50:05.169Z,19.45
2023-02-02T09:52:46.525Z,19.45
2023-02-02T09:55:23.826Z,19.45
2023-02-02T09:57:59.347Z,19.45
2023-02-02T10:00:42.164Z,19.46
2023-02-02T10:03:22.441Z,19.47
2023-02-02T10:06:18.616Z,19.46
2023-02-02T10:08:52.200Z,19.45
2023-02-02T10:11:22.091Z,19.45
2023-02-02T10:13:52.786Z,19.47
2023-02-02T10:16:22.812Z,19.47
2023-02-02T10:18:55.326Z,19.47
2023-02-02T10:22:00.360Z,19.47
2023-02-02T10:24:29.785Z,19.46
2023-02-02T10:27:04.506Z,19.47
2023-02-02T10:29:49.629Z,19.49
2023-02-02T10:32:27.280Z,19.49
2023-02-02T10:35:13.642Z,19.49
2023-02-02T10:37:50.351Z,19.49
2023-02-02T10:40:25.003Z,19.49
2023-02-02T10:43:30.097Z,19.50
2023-02-02T10:45:59.743Z,19.50
2023-02-02T10:48:35.808Z,19.50
2023-02-02T10:51:11.297Z,19.50
2023-02-02T10:53:38.933Z,19.50
2023-02-02T10:56:11.675Z,19.51
2023-02-02T10:59:07.088Z,19.50
2023-02-02T11:01:34.567Z,19.51
2023-02-02T11:04:20.307Z,19.51
2023-02-02T11:06:50.733Z,19.51
2023-02-02T11:09:21.997Z,19.51
2023-02-02T11:11:58.257Z,19.50
2023-02-02T11:14:45.162Z,19.49
2023-02-02T11:17:23.718Z,19.50
2023-02-02T11:19:51.814Z,19.50
2023-02-02T11:22:37.300Z,19.50
2023-02-02T11:25:29.313Z,19.51
2023-02-02T11:27:56.816Z,19.50
2023-02-02T11:30:27.748Z,19.50
2023-02-02T11:32:56.516Z,19.50
2023-02-02T11:35:26.017Z,19.51
2023-02-02T11:37:57.908Z,19.51
2023-02-02T11:40:34.852Z,19.51
2023-02-02T11:43:41.953Z,19.51
2023-02-02T11:46:32.793Z,19.52
2023-02-02T11:49:10.390Z,19.52
2023-02-02T11:51:37.761Z,19.52
2023-02-02T11:54:22.318Z,19.52
2023-02-02T11:56:54.023Z,19.52
2023-02-02T11:59:32.470Z,19.53
2023-02-02T12:02:30.679Z,19.53
2023-02-02T12:05:09.997Z,19.53
2023-02-02T12:07:37.712Z,19.52
2023-02-02T12:10:16.716Z,19.54
2023-02-02T12:12:49.695Z,19.55
2023-02-02T12:15:51.599Z,19.55
2023-02-02T12:18:38.318Z,19.55
2023-02-02T12:21:08.542Z,19.55
2023-02-02T12:23:56.719Z,19.56
2023-02-02T12:26:37.023Z,19.57
2023-02-02T12:29:16.694Z,19.56
2023-02-02T12:31:46.769Z,19.57
2023-02-02T12:34:37.048Z,19.57
2023-02-02T12:37:29.982Z,19.58
2023-02-02T12:40:16.035Z,19.57
2023-02-02T12:42:49.551Z,19.53
2023-02-02T12:45:43.060Z,19.51
2023-02-02T12:48:14.129Z,19.48
2023-02-02T12:50:54.955Z,19.45
2023-02-02T12:53:34.075Z,19.41
2023-02-02T12:56:17.285Z,19.37
2023-02-02T12:58:44.548Z,19.33
2023-02-02T13:01:18.145Z,19.32
2023-02-02T13:04:07.137Z,19.28
2023-02-02T13:07:00.907Z,19.27
2023-02-02T13:09:33.974Z,19.25
2023-02-02T13:12:05.335Z,19.25
2023-02-02T13:14:48.185Z,19.24
2023-02-02T13:17:22.504Z,19.26
2023-02-02T13:19:53.925Z,19.27
2023-02-02T13:22:37.344Z,19.27
2023-02-02T13:25:13.629Z,19.27
2023-02-02T13:27:42.344Z,19.27
2023-02-02T13:30:31.426Z,19.30
2023-02-02T13:33:02.939Z,19.28
2023-02-02T13:35:35.291Z,19.29
2023-02-02T13:38:15.962Z,19.27
2023-02-02T13:40:44.138Z,19.26
2023-02-02T13:43:39.836Z,19.25
2023-02-02T13:46:29.574Z,19.24
2023-02-02T13:49:16.120Z,19.24
2023-02-02T13:52:37.597Z,19.23
2023-02-02T13:55:28.005Z,19.23
2023-02-02T13:58:20.438Z,19.23
2023-02-02T14:00:56.602Z,19.21
2023-02-02T14:03:29.937Z,19.22
2023-02-02T14:06:07.660Z,19.22
2023-02-02T14:08:36.167Z,19.21
2023-02-02T14:11:07.071Z,19.21
2023-02-02T14:14:08.833Z,19.21
2023-02-02T14:16:35.997Z,19.22
2023-02-02T14:19:06.499Z,19.22
2023-02-02T14:21:33.784Z,19.23
2023-02-02T14:24:27.320Z,19.23
2023-02-02T14:26:58.738Z,19.21
2023-02-02T14:29:31.766Z,19.22
2023-02-02T14:31:59.191Z,19.21
2023-02-02T14:34:30.133Z,19.21
2023-02-02T14:37:26.301Z,19.21
2023-02-02T14:40:02.962Z,19.24
2023-02-02T14:42:56.449Z,19.24
2023-02-02T14:45:33.697Z,19.23
2023-02-02T14:48:25.513Z,19.22
2023-02-02T14:50:55.751Z,19.24
2023-02-02T14:53:26.358Z,19.23
2023-02-02T14:56:10.732Z,19.24
2023-02-02T14:58:38.100Z,19.23
2023-02-02T15:01:17.429Z,19.23
2023-02-02T15:03:47.453Z,19.24
2023-02-02T15:06:34.314Z,19.23
2023-02-02T15:09:20.155Z,19.23
2023-02-02T15:12:01.096Z,19.23
2023-02-02T15:14:47.099Z,19.23
2023-02-02T15:17:35.931Z,19.24
2023-02-02T15:20:21.486Z,19.24
2023-02-02T15:23:17.341Z,19.24
2023-02-02T15:26:01.012Z,19.24
2023-02-02T15:28:31.285Z,19.23
2023-02-02T15:31:39.668Z,19.25
2023-02-02T15:34:40.813Z,19.31
2023-02-02T15:37:15.084Z,19.30
2023-02-02T15:39:49.120Z,19.31
2023-02-02T15:42:44.146Z,19.32
2023-02-02T15:45:37.912Z,19.32
2023-02-02T15:48:30.298Z,19.31
2023-02-02T15:51:02.160Z,19.28
2023-02-02T15:53:54.868Z,19.27
2023-02-02T15:56:24.830Z,19.26
2023-02-02T15:58:55.181Z,19.25
2023-02-02T16:01:24.145Z,19.25
2023-02-02T16:04:47.675Z,19.25
2023-02-02T16:07:22.048Z,19.25
2023-02-02T16:09:49.821Z,19.26
2023-02-02T16:12:20.147Z,19.24
2023-02-02T16:14:50.606Z,19.24
2023-02-02T16:17:23.425Z,19.24
2023-02-02T16:19:57.038Z,19.24
2023-02-02T16:22:25.411Z,19.24
2023-02-02T16:24:56.592Z,19.25
2023-02-02T16:27:26.509Z,19.24
2023-02-02T16:29:56.478Z,19.23
2023-02-02T16:32:31.035Z,19.23
2023-02-02T16:34:59.486Z,19.24
2023-02-02T16:37:29.515Z,19.25
2023-02-02T16:40:15.902Z,19.26
2023-02-02T16:42:43.246Z,19.25
2023-02-02T16:45:34.889Z,19.26
2023-02-02T16:48:36.355Z,19.26
2023-02-02T16:51:05.478Z,19.26
2023-02-02T16:53:33.685Z,19.26
2023-02-02T16:56:02.101Z,19.27
2023-02-02T16:58:29.727Z,19.27
2023-02-02T17:01:12.642Z,19.26
2023-02-02T17:03:53.384Z,19.26
2023-02-02T17:06:50.000Z,19.26
2023-02-02T17:09:35.663Z,19.26
2023-02-02T17:12:09.304Z,19.25
2023-02-02T17:14:52.170Z,19.26
2023-02-02T17:17:19.608Z,19.29
2023-02-02T17:19:49.456Z,19.29
2023-02-02T17:22:20.187Z,19.30
2023-02-02T17:24:49.735Z,19.32
2023-02-02T17:27:27.440Z,19.33
2023-02-02T17:29:55.565Z,19.34
2023-02-02T17:32:24.942Z,19.35
2023-02-02T17:34:52.478Z,19.36
2023-02-02T17:37:19.658Z,19.36
2023-02-02T17:39:47.222Z,19.35
2023-02-02T17:42:28.004Z,19.34
2023-02-02T17:44:55.340Z,19.35
2023-02-02T17:47:22.683Z,19.34
2023-02-02T17:49:49.953Z,19.34
2023-02-02T17:52:17.309Z,19.33
2023-02-02T17:54:44.548Z,19.35
2023-02-02T17:57:12.065Z,19.34
2023-02-02T17:59:39.325Z,19.36
2023-02-02T18:02:07.276Z,19.37
2023-02-02T18:04:35.911Z,19.37
2023-02-02T18:07:03.720Z,19.37
2023-02-02T18:09:34.075Z,19.37
2023-02-02T18:12:01.291Z,19.38
2023-02-02T18:14:28.637Z,19.39
2023-02-02T18:16:56.235Z,19.40
2023-02-02T18:19:23.599Z,19.42
2023-02-02T18:21:50.939Z,19.43
2023-02-02T18:24:18.251Z,19.44
2023-02-02T18:26:45.508Z,19.44
2023-02-02T18:29:12.879Z,19.44
2023-02-02T18:31:42.346Z,19.44
2023-02-02T18:34:09.707Z,19.45
2023-02-02T18:36:37.250Z,19.47
2023-02-02T18:39:04.459Z,19.48
2023-02-02T18:41:31.824Z,19.49
2023-02-02T18:43:59.081Z,19.47
2023-02-02T18:46:27.014Z,19.47
2023-02-02T18:48:55.659Z,19.48
2023-02-02T18:51:22.892Z,19.48
2023-02-02T18:53:50.268Z,19.48
2023-02-02T18:56:17.895Z,19.48
2023-02-02T18:58:45.263Z,19.46
2023-02-02T19:01:19.437Z,19.47
2023-02-02T19:03:54.812Z,19.48
2023-02-02T19:06:40.956Z,19.48
2023-02-02T19:09:09.139Z,19.48
2023-02-02T19:11:45.229Z,19.48
2023-02-02T19:14:24.377Z,19.50
2023-02-02T19:16:52.669Z,19.51
2023-02-02T19:19:24.710Z,19.50
2023-02-02T19:21:59.914Z,19.51
2023-02-02T19:24:32.502Z,19.52
2023-02-02T19:26:59.792Z,19.54
2023-02-02T19:29:33.511Z,19.53
2023-02-02T19:32:14.211Z,19.56
2023-02-02T19:34:41.808Z,19.57
2023-02-02T19:37:24.702Z,19.58
2023-02-02T19:40:16.090Z,19.60
2023-02-02T19:42:49.812Z,19.59
2023-02-02T19:45:21.325Z,19.61
2023-02-02T19:47:51.151Z,19.62
2023-02-02T19:50:27.692Z,19.63
2023-02-02T19:52:55.875Z,19.63
2023-02-02T19:55:34.758Z,19.64
2023-02-02T19:58:14.551Z,19.64
2023-02-02T20:00:42.658Z,19.64
2023-02-02T20:03:15.826Z,19.64
2023-02-02T20:05:46.142Z,19.66
2023-02-02T20:08:30.953Z,19.65
2023-02-02T20:11:00.727Z,19.67
2023-02-02T20:13:53.320Z,19.66
2023-02-02T20:16:23.540Z,19.68
2023-02-02T20:18:54.117Z,19.68
2023-02-02T20:21:42.011Z,19.69
2023-02-02T20:24:26.091Z,19.69
2023-02-02T20:27:00.606Z,19.69
2023-02-02T20:29:37.561Z,19.68
2023-02-02T20:32:08.103Z,19.69
2023-02-02T20:34:41.981Z,19.69
2023-02-02T20:37:11.897Z,19.69
2023-02-02T20:39:47.852Z,19.69
2023-02-02T20:42:15.423Z,19.68
2023-02-02T20:44:42.783Z,19.72
2023-02-02T20:47:10.297Z,19.72
2023-02-02T20:49:38.553Z,19.74
2023-02-02T20:52:10.703Z,19.76
2023-02-02T20:54:39.305Z,19.78
2023-02-02T20:57:06.777Z,19.79
2023-02-02T20:59:34.080Z,19.81
2023-02-02T21:02:02.193Z,19.82
2023-02-02T21:04:29.619Z,19.82
2023-02-02T21:06:59.380Z,19.79
2023-02-02T21:09:26.833Z,19.79
2023-02-02T21:11:54.253Z,19.81
2023-02-02T21:14:21.523Z,19.82
2023-02-02T21:16:48.788Z,19.83
2023-02-02T21:19:16.065Z,19.85
2023-02-02T21:21:43.397Z,19.86
2023-02-02T21:24:10.849Z,19.88
2023-02-02T21:26:38.144Z,19.88
2023-02-02T21:29:05.515Z,19.88
2023-02-02T21:31:35.270Z,19.89
2023-02-02T21:34:02.891Z,19.87
2023-02-02T21:36:36.360Z,19.89
2023-02-02T21:39:22.825Z,19.89
2023-02-02T21:41:55.223Z,19.90
2023-02-02T21:44:22.618Z,19.90
2023-02-02T21:46:51.393Z,19.90
2023-02-02T21:49:22.793Z,19.92
2023-02-02T21:51:50.930Z,19.92
2023-02-02T21:54:18.153Z,19.93
2023-02-02T21:56:45.443Z,19.94
2023-02-02T21:59:20.038Z,19.94
2023-02-02T22:01:48.877Z,19.95
2023-02-02T22:04:20.919Z,19.95
2023-02-02T22:06:54.597Z,19.87
2023-02-02T22:09:27.449Z,19.87
2023-02-02T22:12:01.705Z,19.87
2023-02-02T22:14:39.752Z,19.87
2023-02-02T22:17:22.300Z,19.88
2023-02-02T22:20:01.298Z,19.90
2023-02-02T22:22:35.787Z,19.91
2023-02-02T22:25:04.787Z,19.91
2023-02-02T22:27:53.147Z,19.92
2023-02-02T22:30:27.504Z,19.93
2023-02-02T22:32:55.305Z,19.94
2023-02-02T22:35:22.615Z,19.94
2023-02-02T22:37:51.406Z,19.92
2023-02-02T22:40:22.437Z,19.93
2023-02-02T22:42:51.016Z,19.93
2023-02-02T22:45:18.660Z,19.92
2023-02-02T22:47:49.620Z,19.94
2023-02-02T22:50:18.690Z,19.93
2023-02-02T22:52:46.226Z,19.94
2023-02-02T22:55:13.765Z,19.94
2023-02-02T22:57:41.178Z,19.94
2023-02-02T23:00:14.469Z,19.94
2023-02-02T23:02:41.885Z,19.95
2023-02-02T23:05:12.299Z,19.92
2023-02-02T23:07:39.975Z,19.90
2023-02-02T23:10:07.906Z,19.86
2023-02-02T23:12:35.222Z,19.86
2023-02-02T23:15:02.931Z,19.87
2023-02-02T23:17:31.793Z,19.88
2023-02-02T23:19:59.172Z,19.88
2023-02-02T23:22:26.523Z,19.88
2023-02-02T23:24:53.931Z,19.89
2023-02-02T23:27:21.490Z,19.89
2023-02-02T23:29:48.783Z,19.90
2023-02-02T23:32:16.265Z,19.90
2023-02-02T23:34:43.581Z,19.90
2023-02-02T23:37:10.821Z,19.90
2023-02-02T23:39:38.074Z,19.90
2023-02-02T23:42:05.509Z,19.90
2023-02-02T23:44:32.960Z,19.91
2023-02-02T23:47:01.912Z,19.90
2023-02-02T23:49:31.441Z,19.90
2023-02-02T23:51:59.255Z,19.91
2023-02-02T23:54:27.670Z,19.90
2023-02-02T23:56:56.083Z,19.92
2023-02-02T23:59:23.344Z,19.90
